Time;durP1;ratioP1;P1;durP2;ratioP2;P2;SDS_P1;SDS_P2;PMS_P1;PMS_P2;Temp;Humidity;BMP_temperature;BMP_pressure;BME280_temperature;BME280_humidity;BME280_pressure;Samples;Min_cycle;Max_cycle;Signal;HPM_P1;HPM_P2
2021/06/23 00:01:22;;;;;;;10.47;9.67;;;;;;;;;;4980622;28;20660;-59
2021/06/23 00:03:47;;;;;;;10.67;9.70;;;;;;;;;;4985507;28;20212;-58
2021/06/23 00:06:13;;;;;;;10.13;9.27;;;;;;;;;;4984297;28;20166;-59
2021/06/23 00:08:38;;;;;;;10.27;9.47;;;;;;;;;;4983201;28;20252;-58
2021/06/23 00:11:03;;;;;;;8.87;8.30;;;;;;;;;;4980625;28;20240;-58
2021/06/23 00:13:32;;;;;;;9.70;9.00;;;;;;;;;;4977371;28;20264;-58
2021/06/23 00:15:58;;;;;;;9.47;8.63;;;;;;;;;;4985440;28;20663;-59
2021/06/23 00:18:23;;;;;;;9.23;8.53;;;;;;;;;;4983821;28;20644;-59
2021/06/23 00:20:48;;;;;;;9.45;8.55;;;;;;;;;;4984698;28;20170;-59
2021/06/23 00:23:13;;;;;;;9.15;8.25;;;;;;;;;;5002538;28;20312;-59
2021/06/23 00:25:38;;;;;;;10.30;9.50;;;;;;;;;;4979973;28;20635;-59
2021/06/23 00:28:04;;;;;;;9.50;8.70;;;;;;;;;;4977701;28;20185;-59
2021/06/23 00:30:29;;;;;;;9.67;8.90;;;;;;;;;;4973853;28;20183;-59
2021/06/23 00:32:55;;;;;;;10.10;9.35;;;;;;;;;;4980367;28;20200;-59
2021/06/23 00:35:20;;;;;;;8.23;7.63;;;;;;;;;;4978294;28;20190;-58
2021/06/23 00:37:45;;;;;;;7.80;7.20;;;;;;;;;;4981786;28;20594;-59
2021/06/23 00:40:11;;;;;;;8.63;8.03;;;;;;;;;;4981263;28;20189;-59
2021/06/23 00:42:36;;;;;;;9.10;8.50;;;;;;;;;;4981715;28;20205;-58
2021/06/23 00:45:06;;;;;;;10.33;8.37;;;;;;;;;;4972696;28;20266;-59
2021/06/23 00:47:31;;;;;;;8.40;7.80;;;;;;;;;;4981729;28;20200;-58
2021/06/23 00:49:58;;;;;;;8.80;8.10;;;;;;;;;;4977175;28;21143;-59
2021/06/23 00:52:23;;;;;;;9.73;8.93;;;;;;;;;;4977563;28;20182;-58
2021/06/23 00:54:49;;;;;;;8.30;7.73;;;;;;;;;;4980273;28;20605;-58
2021/06/23 00:57:14;;;;;;;8.30;7.70;;;;;;;;;;4977847;28;20182;-58
2021/06/23 00:59:40;;;;;;;8.80;8.20;;;;;;;;;;4988485;28;21178;-58
2021/06/23 01:02:05;;;;;;;8.00;7.50;;;;;;;;;;4972502;28;20210;-58
2021/06/23 01:04:31;;;;;;;9.47;8.87;;;;;;;;;;4976939;28;20186;-58
2021/06/23 01:06:56;;;;;;;9.03;8.43;;;;;;;;;;4980810;28;20186;-57
2021/06/23 01:09:22;;;;;;;8.27;7.77;;;;;;;;;;4983631;28;20196;-57
2021/06/23 01:12:10;;;;;;;8.60;8.00;;;;;;;;;;4982651;28;20228;-57
2021/06/23 01:14:35;;;;;;;10.00;9.30;;;;;;;;;;4970774;28;20179;-57
2021/06/23 01:17:02;;;;;;;9.93;9.03;;;;;;;;;;4975102;28;21189;-57
2021/06/23 01:19:30;;;;;;;9.60;8.90;;;;;;;;;;4971950;28;20170;-57
2021/06/23 01:21:55;;;;;;;9.80;8.90;;;;;;;;;;4987948;28;20645;-57
2021/06/23 01:24:20;;;;;;;10.80;10.00;;;;;;;;;;4979515;28;20612;-58
2021/06/23 01:26:45;;;;;;;10.35;9.65;;;;;;;;;;4972415;28;20274;-57
2021/06/23 01:29:10;;;;;;;10.50;9.80;;;;;;;;;;4975032;28;20229;-59
2021/06/23 01:31:36;;;;;;;10.73;9.93;;;;;;;;;;4983306;28;20790;-59
2021/06/23 01:34:01;;;;;;;11.73;10.82;;;;;;;;;;4976369;28;20194;-59
2021/06/23 01:36:26;;;;;;;10.10;9.40;;;;;;;;;;4978399;28;20182;-59
2021/06/23 01:38:51;;;;;;;8.85;8.25;;;;;;;;;;4982588;28;20656;-59
2021/06/23 01:44:20;;;;;;;10.30;9.60;;;;;;;;;;4982166;28;20201;-59
2021/06/23 01:46:45;;;;;;;9.30;8.70;;;;;;;;;;4983121;28;20703;-59
2021/06/23 01:49:11;;;;;;;10.50;9.70;;;;;;;;;;4980808;28;20751;-60
2021/06/23 01:51:36;;;;;;;9.65;8.95;;;;;;;;;;4971734;28;20183;-60
2021/06/23 01:54:01;;;;;;;10.20;9.50;;;;;;;;;;4970266;28;20186;-59
2021/06/23 01:56:30;;;;;;;9.90;9.10;;;;;;;;;;4987221;28;20189;-60
2021/06/23 01:58:55;;;;;;;9.03;8.43;;;;;;;;;;4987660;28;20193;-58
2021/06/23 02:01:29;;;;;;;9.73;9.02;;;;;;;;;;4985660;28;21146;-58
2021/06/23 02:03:54;;;;;;;9.10;8.40;;;;;;;;;;4983200;28;20204;-58
2021/06/23 02:06:35;;;;;;;8.83;8.00;;;;;;;;;;4988457;28;20609;-58
2021/06/23 02:09:13;;;;;;;8.20;7.60;;;;;;;;;;4988570;28;20260;-57
2021/06/23 02:11:47;;;;;;;9.03;8.30;;;;;;;;;;4975252;28;20648;-57
2021/06/23 02:14:27;;;;;;;8.70;8.10;;;;;;;;;;4978321;28;20583;-58
2021/06/23 02:16:53;;;;;;;8.20;7.70;;;;;;;;;;4974877;28;20587;-58
2021/06/23 02:19:19;;;;;;;9.17;8.57;;;;;;;;;;4984429;28;20608;-58
2021/06/23 02:21:44;;;;;;;8.43;7.87;;;;;;;;;;4984171;28;20606;-58
2021/06/23 02:24:10;;;;;;;10.03;9.27;;;;;;;;;;4980281;28;20180;-58
2021/06/23 02:26:35;;;;;;;9.33;8.60;;;;;;;;;;4985662;28;20268;-58
2021/06/23 02:29:04;;;;;;;9.57;8.87;;;;;;;;;;4982798;28;20609;-58
2021/06/23 02:31:30;;;;;;;8.93;8.33;;;;;;;;;;4983346;28;20178;-58
2021/06/23 02:33:56;;;;;;;8.70;8.17;;;;;;;;;;4974974;28;20598;-58
2021/06/23 02:36:21;;;;;;;9.07;8.50;;;;;;;;;;4984977;28;20713;-58
2021/06/23 02:38:47;;;;;;;8.90;8.30;;;;;;;;;;4990968;28;20185;-58
2021/06/23 02:41:12;;;;;;;9.53;8.93;;;;;;;;;;4980500;28;20214;-58
2021/06/23 02:43:38;;;;;;;8.90;8.27;;;;;;;;;;4982617;28;20266;-58
2021/06/23 02:46:03;;;;;;;9.23;8.63;;;;;;;;;;4989994;28;20236;-58
2021/06/23 02:48:29;;;;;;;8.23;7.73;;;;;;;;;;4990896;28;20718;-58
2021/06/23 02:50:59;;;;;;;9.13;8.50;;;;;;;;;;4981277;28;20195;-58
2021/06/23 02:53:26;;;;;;;10.63;9.53;;;;;;;;;;4986868;28;20704;-57
2021/06/23 02:55:53;;;;;;;8.87;8.27;;;;;;;;;;4990490;28;20608;-58
2021/06/23 02:58:19;;;;;;;8.77;8.13;;;;;;;;;;4987284;28;20615;-58
2021/06/23 03:00:44;;;;;;;8.53;7.93;;;;;;;;;;4975539;28;20610;-57
2021/06/23 03:03:09;;;;;;;8.37;7.87;;;;;;;;;;4984914;28;20208;-58
2021/06/23 03:05:34;;;;;;;8.50;8.00;;;;;;;;;;4991256;28;20618;-58
2021/06/23 03:07:59;;;;;;;9.68;8.77;;;;;;;;;;4988086;28;20174;-58
2021/06/23 03:10:24;;;;;;;8.63;7.93;;;;;;;;;;4986285;28;20194;-58
2021/06/23 03:12:50;;;;;;;9.60;8.90;;;;;;;;;;4988278;28;20730;-59
2021/06/23 03:15:15;;;;;;;8.17;7.67;;;;;;;;;;4973631;28;20336;-59
2021/06/23 03:17:40;;;;;;;7.93;7.43;;;;;;;;;;4967522;28;20186;-58
2021/06/23 03:20:06;;;;;;;9.17;8.50;;;;;;;;;;4979809;28;20182;-58
2021/06/23 03:22:32;;;;;;;7.90;7.40;;;;;;;;;;4983101;28;20246;-58
2021/06/23 03:24:57;;;;;;;8.30;7.70;;;;;;;;;;4981988;28;20635;-59
2021/06/23 03:27:22;;;;;;;8.80;8.20;;;;;;;;;;4986698;28;20201;-60
2021/06/23 03:29:47;;;;;;;8.27;7.78;;;;;;;;;;4978321;28;20316;-60
2021/06/23 03:32:12;;;;;;;8.18;7.57;;;;;;;;;;4971370;28;20182;-59
2021/06/23 03:34:38;;;;;;;8.57;7.97;;;;;;;;;;4984187;28;20830;-58
2021/06/23 03:37:04;;;;;;;8.73;7.93;;;;;;;;;;4983001;28;20224;-59
2021/06/23 03:39:29;;;;;;;8.00;7.50;;;;;;;;;;4989014;28;20276;-59
2021/06/23 03:41:54;;;;;;;9.07;8.20;;;;;;;;;;4985503;28;20216;-60
2021/06/23 03:44:19;;;;;;;7.30;6.80;;;;;;;;;;4988835;28;20181;-60
2021/06/23 03:46:44;;;;;;;8.25;7.75;;;;;;;;;;4987383;28;20646;-59
2021/06/23 03:49:09;;;;;;;8.75;7.88;;;;;;;;;;4985556;28;20229;-60
2021/06/23 03:51:35;;;;;;;8.60;7.80;;;;;;;;;;4980440;28;20538;-60
2021/06/23 03:54:00;;;;;;;8.70;8.00;;;;;;;;;;4989596;28;20647;-60
2021/06/23 03:56:25;;;;;;;9.33;8.40;;;;;;;;;;4986694;28;20529;-60
2021/06/23 03:58:51;;;;;;;8.47;7.87;;;;;;;;;;4986073;28;20194;-62
2021/06/23 04:01:16;;;;;;;8.00;7.40;;;;;;;;;;4981153;28;20193;-62
2021/06/23 04:03:41;;;;;;;8.67;8.00;;;;;;;;;;4980893;28;20262;-60
2021/06/23 04:06:07;;;;;;;8.87;8.27;;;;;;;;;;4986154;28;20232;-61
2021/06/23 04:08:32;;;;;;;8.40;7.73;;;;;;;;;;4988548;28;20189;-60
2021/06/23 04:10:57;;;;;;;8.25;7.65;;;;;;;;;;4989518;28;20639;-59
2021/06/23 04:13:22;;;;;;;7.77;6.90;;;;;;;;;;4987685;28;20177;-60
2021/06/23 04:15:48;;;;;;;7.82;7.28;;;;;;;;;;4984310;28;20525;-60
2021/06/23 04:18:13;;;;;;;7.95;7.25;;;;;;;;;;4974855;28;20601;-59
2021/06/23 04:20:38;;;;;;;8.10;7.50;;;;;;;;;;4984365;28;20182;-61
2021/06/23 04:23:04;;;;;;;7.90;7.40;;;;;;;;;;4989400;28;20205;-61
2021/06/23 04:25:29;;;;;;;8.20;7.40;;;;;;;;;;4985401;28;20646;-62
2021/06/23 04:27:54;;;;;;;7.80;7.20;;;;;;;;;;4988869;28;20211;-59
2021/06/23 04:30:20;;;;;;;8.00;7.40;;;;;;;;;;4988004;28;20192;-62
2021/06/23 04:32:45;;;;;;;6.80;6.30;;;;;;;;;;4983978;28;20179;-62
2021/06/23 04:35:11;;;;;;;7.90;7.40;;;;;;;;;;4970107;28;20657;-62
2021/06/23 04:37:36;;;;;;;7.93;7.33;;;;;;;;;;4985699;28;20548;-61
2021/06/23 04:40:03;;;;;;;7.20;6.70;;;;;;;;;;4989877;28;20253;-62
2021/06/23 04:42:28;;;;;;;7.63;6.93;;;;;;;;;;4978232;28;20206;-61
2021/06/23 04:44:53;;;;;;;8.50;7.80;;;;;;;;;;4989629;28;20667;-61
2021/06/23 04:47:19;;;;;;;8.00;7.40;;;;;;;;;;4982088;28;20174;-61
2021/06/23 04:49:44;;;;;;;8.33;7.63;;;;;;;;;;4989443;28;20723;-62
2021/06/23 04:52:09;;;;;;;7.97;7.30;;;;;;;;;;4989602;28;20185;-62
2021/06/23 04:54:34;;;;;;;8.57;7.97;;;;;;;;;;4989626;28;20181;-61
2021/06/23 04:57:00;;;;;;;9.68;8.57;;;;;;;;;;4989563;28;20260;-62
2021/06/23 04:59:25;;;;;;;8.73;8.10;;;;;;;;;;4977984;28;20265;-62
2021/06/23 05:01:51;;;;;;;8.97;8.33;;;;;;;;;;4988175;28;20264;-62
2021/06/23 05:04:16;;;;;;;7.97;7.47;;;;;;;;;;4986286;28;20613;-60
2021/06/23 05:06:47;;;;;;;8.63;7.93;;;;;;;;;;4988069;28;20843;-60
2021/06/23 05:09:12;;;;;;;8.20;7.50;;;;;;;;;;4982296;28;20231;-60
2021/06/23 05:11:37;;;;;;;8.67;8.07;;;;;;;;;;4985299;28;20657;-58
2021/06/23 05:14:05;;;;;;;10.07;8.77;;;;;;;;;;4988104;28;20194;-58
2021/06/23 05:16:30;;;;;;;8.10;7.50;;;;;;;;;;4995974;28;20549;-58
2021/06/23 05:18:56;;;;;;;8.53;7.97;;;;;;;;;;4983483;28;20614;-57
2021/06/23 05:21:21;;;;;;;8.70;8.00;;;;;;;;;;4963945;28;20186;-58
2021/06/23 05:23:47;;;;;;;9.20;8.50;;;;;;;;;;4983729;28;20197;-58
2021/06/23 05:26:12;;;;;;;8.80;8.17;;;;;;;;;;4982522;28;20186;-57
2021/06/23 05:28:37;;;;;;;9.00;8.30;;;;;;;;;;4983192;28;20190;-57
2021/06/23 05:31:02;;;;;;;8.13;7.53;;;;;;;;;;4984586;28;20264;-58
2021/06/23 05:33:27;;;;;;;12.50;8.20;;;;;;;;;;4974475;28;20261;-58
2021/06/23 05:35:53;;;;;;;9.57;8.70;;;;;;;;;;4975988;28;20193;-56
2021/06/23 05:38:18;;;;;;;9.40;8.65;;;;;;;;;;4978028;28;20604;-57
2021/06/23 05:40:43;;;;;;;9.77;9.00;;;;;;;;;;4980227;28;20230;-58
2021/06/23 05:43:08;;;;;;;9.93;9.03;;;;;;;;;;4978094;28;20213;-58
2021/06/23 05:45:33;;;;;;;9.70;8.80;;;;;;;;;;4975685;28;20217;-58
2021/06/23 05:47:59;;;;;;;8.80;8.10;;;;;;;;;;4978980;28;20184;-58
2021/06/23 05:50:24;;;;;;;9.70;9.10;;;;;;;;;;4977536;28;20193;-58
2021/06/23 05:52:49;;;;;;;9.50;8.85;;;;;;;;;;4982091;28;20270;-58
2021/06/23 05:55:20;;;;;;;8.77;8.10;;;;;;;;;;4980986;28;20189;-57
2021/06/23 05:57:48;;;;;;;8.37;7.70;;;;;;;;;;4979030;28;20232;-58
2021/06/23 06:00:13;;;;;;;10.07;9.20;;;;;;;;;;4972353;28;20645;-57
2021/06/23 06:02:38;;;;;;;12.13;9.83;;;;;;;;;;4984463;28;20692;-57
2021/06/23 06:05:04;;;;;;;10.13;9.23;;;;;;;;;;4980136;28;20182;-57
2021/06/23 06:07:29;;;;;;;11.13;10.03;;;;;;;;;;4981951;28;20241;-58
2021/06/23 06:09:54;;;;;;;9.60;8.77;;;;;;;;;;4975927;28;20201;-57
2021/06/23 06:12:19;;;;;;;9.57;8.75;;;;;;;;;;4978184;28;20254;-58
2021/06/23 06:14:46;;;;;;;8.83;8.23;;;;;;;;;;4996772;28;20438;-57
2021/06/23 06:17:11;;;;;;;9.03;8.33;;;;;;;;;;4984996;28;20260;-57
2021/06/23 06:19:36;;;;;;;9.88;8.98;;;;;;;;;;4988331;28;20692;-57
2021/06/23 06:22:01;;;;;;;10.20;9.32;;;;;;;;;;4988073;28;20635;-57
2021/06/23 06:24:26;;;;;;;10.50;9.70;;;;;;;;;;4987943;28;20178;-57
2021/06/23 06:26:51;;;;;;;10.02;9.30;;;;;;;;;;4988474;28;20201;-58
2021/06/23 06:29:17;;;;;;;11.07;10.02;;;;;;;;;;4983358;28;20190;-57
2021/06/23 06:31:42;;;;;;;11.23;10.23;;;;;;;;;;4983553;28;20178;-57
2021/06/23 06:34:07;;;;;;;11.70;10.80;;;;;;;;;;4984254;28;20201;-55
2021/06/23 06:36:32;;;;;;;10.90;9.98;;;;;;;;;;4979348;28;20819;-57
2021/06/23 06:38:57;;;;;;;10.27;9.43;;;;;;;;;;4986919;28;20221;-57
2021/06/23 06:41:22;;;;;;;9.93;9.13;;;;;;;;;;4982465;28;20182;-57
2021/06/23 06:43:48;;;;;;;12.37;11.47;;;;;;;;;;4977975;28;20550;-57
2021/06/23 06:46:13;;;;;;;11.98;11.07;;;;;;;;;;4977052;28;20644;-57
2021/06/23 06:48:38;;;;;;;10.63;9.83;;;;;;;;;;4980616;28;20177;-57
2021/06/23 06:51:04;;;;;;;11.00;10.20;;;;;;;;;;4983740;28;20183;-58
2021/06/23 06:53:29;;;;;;;12.90;10.50;;;;;;;;;;4982081;28;20181;-57
2021/06/23 06:55:54;;;;;;;10.07;9.17;;;;;;;;;;4978484;28;20182;-57
2021/06/23 06:58:19;;;;;;;11.83;10.83;;;;;;;;;;4978516;28;20186;-57
2021/06/23 07:00:44;;;;;;;10.73;9.82;;;;;;;;;;4983346;28;20269;-57
2021/06/23 07:03:10;;;;;;;11.00;10.10;;;;;;;;;;4983752;28;20201;-57
2021/06/23 07:05:35;;;;;;;10.87;9.97;;;;;;;;;;4978404;28;20225;-58
2021/06/23 07:08:00;;;;;;;12.10;11.20;;;;;;;;;;4978461;28;20161;-57
2021/06/23 07:10:25;;;;;;;10.50;9.60;;;;;;;;;;4978569;28;20224;-57
2021/06/23 07:12:50;;;;;;;10.93;10.02;;;;;;;;;;4983390;28;20691;-57
2021/06/23 07:15:16;;;;;;;11.88;10.98;;;;;;;;;;4981469;28;20187;-57
2021/06/23 07:17:41;;;;;;;11.63;10.50;;;;;;;;;;4978717;28;20261;-58
2021/06/23 07:20:07;;;;;;;12.40;11.13;;;;;;;;;;4980473;28;20175;-57
2021/06/23 07:22:32;;;;;;;12.80;11.80;;;;;;;;;;4980513;28;20290;-57
2021/06/23 07:24:58;;;;;;;15.60;11.80;;;;;;;;;;4987509;28;20259;-57
2021/06/23 07:27:23;;;;;;;12.87;11.87;;;;;;;;;;4985420;28;20178;-57
2021/06/23 07:29:49;;;;;;;12.83;11.80;;;;;;;;;;4985474;28;20191;-57
2021/06/23 07:32:24;;;;;;;12.77;11.80;;;;;;;;;;4982469;28;20257;-57
2021/06/23 07:37:17;;;;;;;13.33;12.40;;;;;;;;;;4985667;28;20569;-57
2021/06/23 07:39:43;;;;;;;12.53;11.47;;;;;;;;;;4987370;28;20577;-57
2021/06/23 07:42:09;;;;;;;12.63;11.80;;;;;;;;;;4984734;28;20708;-58
2021/06/23 07:44:44;;;;;;;13.50;12.30;;;;;;;;;;4963803;28;20170;-58
2021/06/23 07:47:17;;;;;;;15.33;14.13;;;;;;;;;;4983386;28;20176;-58
2021/06/23 07:49:43;;;;;;;15.53;14.00;;;;;;;;;;4983759;28;20597;-58
2021/06/23 07:52:19;;;;;;;13.93;12.63;;;;;;;;;;4986126;28;20589;-58
2021/06/23 08:08:46;;;;;;;12.83;11.73;;;;;;;;;;4980877;28;20814;-59
2021/06/23 08:11:20;;;;;;;15.27;13.83;;;;;;;;;;4985129;28;20702;-58
2021/06/23 08:13:46;;;;;;;13.60;12.50;;;;;;;;;;4982611;28;20600;-59
2021/06/23 08:16:11;;;;;;;15.50;14.30;;;;;;;;;;4986169;28;20651;-58
2021/06/23 08:18:36;;;;;;;13.37;12.07;;;;;;;;;;4983694;28;20189;-57
2021/06/23 08:21:01;;;;;;;16.20;14.77;;;;;;;;;;4982043;28;20680;-57
2021/06/23 08:23:26;;;;;;;13.50;12.33;;;;;;;;;;4980459;28;20293;-57
2021/06/23 08:25:51;;;;;;;15.13;13.73;;;;;;;;;;4981935;28;20187;-58
2021/06/23 08:28:17;;;;;;;14.37;13.07;;;;;;;;;;4984387;28;20177;-58
2021/06/23 08:30:42;;;;;;;12.43;11.43;;;;;;;;;;4984793;28;20178;-57
2021/06/23 08:33:07;;;;;;;12.80;11.80;;;;;;;;;;4982658;28;20190;-58
2021/06/23 08:35:33;;;;;;;13.27;12.18;;;;;;;;;;4962480;28;20181;-57
2021/06/23 08:37:58;;;;;;;14.73;13.53;;;;;;;;;;4984145;28;20268;-57
2021/06/23 08:40:23;;;;;;;14.10;12.90;;;;;;;;;;4983764;28;20565;-58
2021/06/23 08:42:49;;;;;;;13.13;12.10;;;;;;;;;;4982603;28;20214;-59
2021/06/23 08:45:14;;;;;;;15.53;14.07;;;;;;;;;;4979915;28;20178;-58
2021/06/23 08:47:40;;;;;;;15.53;13.33;;;;;;;;;;4982095;28;20186;-57
2021/06/23 08:50:06;;;;;;;14.10;12.90;;;;;;;;;;4982309;28;20182;-58
2021/06/23 08:52:31;;;;;;;14.17;12.77;;;;;;;;;;4985890;28;20764;-58
2021/06/23 08:54:56;;;;;;;14.10;13.00;;;;;;;;;;4983419;28;20581;-57
2021/06/23 08:57:22;;;;;;;14.23;13.13;;;;;;;;;;4978506;28;20212;-57
2021/06/23 08:59:47;;;;;;;14.27;13.27;;;;;;;;;;4983272;28;20179;-57
2021/06/23 09:02:12;;;;;;;14.87;13.77;;;;;;;;;;4982546;28;20562;-58
2021/06/23 09:04:53;;;;;;;14.70;13.50;;;;;;;;;;4984147;28;20185;-58
2021/06/23 09:07:34;;;;;;;14.70;13.40;;;;;;;;;;4984685;28;20268;-57
2021/06/23 09:09:59;;;;;;;16.30;14.83;;;;;;;;;;4985781;28;21003;-57
2021/06/23 09:12:24;;;;;;;15.90;14.77;;;;;;;;;;4980694;28;20687;-58
2021/06/23 09:14:50;;;;;;;15.05;13.57;;;;;;;;;;4979340;28;20252;-57
2021/06/23 09:17:16;;;;;;;16.40;14.70;;;;;;;;;;4982683;28;20185;-57
2021/06/23 09:19:42;;;;;;;14.67;13.33;;;;;;;;;;4983132;28;20208;-58
2021/06/23 09:22:26;;;;;;;17.20;15.80;;;;;;;;;;4982685;28;20608;-58
2021/06/23 09:24:51;;;;;;;15.10;13.90;;;;;;;;;;4981049;28;20597;-57
2021/06/23 09:27:18;;;;;;;16.80;15.50;;;;;;;;;;4980941;28;20615;-60
2021/06/23 09:29:44;;;;;;;16.03;14.83;;;;;;;;;;4987693;28;20181;-59
2021/06/23 09:32:09;;;;;;;15.80;14.30;;;;;;;;;;4988074;28;20676;-59
2021/06/23 09:34:47;;;;;;;15.60;14.10;;;;;;;;;;4986367;28;20253;-59
2021/06/23 09:37:44;;;;;;;14.93;13.73;;;;;;;;;;4983254;28;20177;-61
2021/06/23 09:40:10;;;;;;;16.23;14.63;;;;;;;;;;4935734;28;20610;-58
2021/06/23 09:42:42;;;;;;;17.10;15.80;;;;;;;;;;4962206;28;20640;-55
2021/06/23 09:45:10;;;;;;;17.00;15.70;;;;;;;;;;4983449;28;20668;-56
2021/06/23 09:47:38;;;;;;;16.73;15.40;;;;;;;;;;4981262;28;20601;-56
2021/06/23 09:50:05;;;;;;;15.17;13.97;;;;;;;;;;4985486;28;20606;-56
2021/06/23 09:52:30;;;;;;;16.00;14.80;;;;;;;;;;4986174;28;20616;-56
2021/06/23 09:54:55;;;;;;;16.35;14.93;;;;;;;;;;4988915;28;20691;-56
2021/06/23 09:57:21;;;;;;;17.00;15.63;;;;;;;;;;4987434;28;20186;-55
2021/06/23 09:59:49;;;;;;;16.63;15.23;;;;;;;;;;4988470;28;20201;-55
2021/06/23 10:02:20;;;;;;;17.27;15.97;;;;;;;;;;4986785;28;20312;-55
2021/06/23 10:04:45;;;;;;;18.50;17.00;;;;;;;;;;4987582;28;20609;-55
2021/06/23 10:07:10;;;;;;;18.50;16.85;;;;;;;;;;4989949;28;21005;-55
2021/06/23 10:09:36;;;;;;;16.83;15.43;;;;;;;;;;4987435;28;20252;-55
2021/06/23 10:12:08;;;;;;;16.83;15.47;;;;;;;;;;4984723;28;20264;-57
2021/06/23 10:14:40;;;;;;;20.07;18.47;;;;;;;;;;4980330;28;20473;-57
2021/06/23 10:17:05;;;;;;;20.80;19.00;;;;;;;;;;4979118;28;20932;-56
2021/06/23 10:19:31;;;;;;;19.80;17.90;;;;;;;;;;4982155;28;21175;-56
2021/06/23 10:21:58;;;;;;;21.57;19.87;;;;;;;;;;4983682;28;20541;-56
2021/06/23 10:24:23;;;;;;;21.67;19.70;;;;;;;;;;4979375;28;20190;-57
2021/06/23 10:26:50;;;;;;;21.90;20.00;;;;;;;;;;4977813;28;20613;-57
2021/06/23 10:29:18;;;;;;;22.10;20.30;;;;;;;;;;4975513;28;20173;-58
2021/06/23 10:31:45;;;;;;;22.07;20.17;;;;;;;;;;4983326;28;20596;-57
2021/06/23 10:34:10;;;;;;;21.33;19.43;;;;;;;;;;4985381;28;20604;-57
2021/06/23 10:36:35;;;;;;;23.50;21.50;;;;;;;;;;4981270;28;20613;-57
2021/06/23 10:39:02;;;;;;;21.70;19.73;;;;;;;;;;4979596;28;20182;-58
2021/06/23 10:41:27;;;;;;;24.83;22.83;;;;;;;;;;4981564;28;20174;-58
2021/06/23 10:44:11;;;;;;;24.63;22.33;;;;;;;;;;4975960;28;20658;-57
2021/06/23 10:46:38;;;;;;;28.03;25.30;;;;;;;;;;4981492;28;20181;-57
2021/06/23 10:49:03;;;;;;;24.10;22.00;;;;;;;;;;4984401;28;20614;-58
2021/06/23 10:51:28;;;;;;;26.88;24.33;;;;;;;;;;4977629;28;20616;-55
2021/06/23 10:53:53;;;;;;;27.77;25.27;;;;;;;;;;4987500;28;20225;-56
2021/06/23 10:56:37;;;;;;;25.97;23.67;;;;;;;;;;4983222;28;20685;-57
2021/06/23 10:59:23;;;;;;;24.10;22.10;;;;;;;;;;4972095;28;20221;-56
2021/06/23 11:02:07;;;;;;;27.33;24.73;;;;;;;;;;4985467;28;20703;-57
2021/06/23 11:04:53;;;;;;;26.63;24.30;;;;;;;;;;4991753;28;20614;-57
2021/06/23 11:07:33;;;;;;;26.47;24.17;;;;;;;;;;4978991;28;20643;-56
2021/06/23 11:12:57;;;;;;;29.20;26.43;;;;;;;;;;4983192;28;20658;-57
2021/06/23 11:15:25;;;;;;;26.97;24.67;;;;;;;;;;4982073;28;20581;-56
2021/06/23 11:17:51;;;;;;;27.20;24.70;;;;;;;;;;4985212;28;20699;-56
2021/06/23 11:20:19;;;;;;;26.70;24.33;;;;;;;;;;4988138;28;20700;-56
2021/06/23 11:22:45;;;;;;;29.10;26.47;;;;;;;;;;4990824;28;20209;-56
2021/06/23 11:25:20;;;;;;;28.90;26.40;;;;;;;;;;4990861;28;20607;-56
2021/06/23 11:27:45;;;;;;;29.50;27.00;;;;;;;;;;4991395;28;20557;-57
2021/06/23 11:30:20;;;;;;;28.50;26.00;;;;;;;;;;4990794;28;20589;-56
2021/06/23 11:32:45;;;;;;;27.93;25.50;;;;;;;;;;4991386;28;20228;-56
2021/06/23 11:35:12;;;;;;;33.17;30.00;;;;;;;;;;4991039;28;21028;-56
2021/06/23 11:37:37;;;;;;;30.03;27.13;;;;;;;;;;4990735;28;20191;-57
2021/06/23 11:40:06;;;;;;;29.80;26.80;;;;;;;;;;4982049;28;20987;-56
2021/06/23 11:42:32;;;;;;;28.93;26.40;;;;;;;;;;4980867;28;20779;-59
2021/06/23 11:44:57;;;;;;;30.77;27.85;;;;;;;;;;4983191;28;20692;-58
2021/06/23 11:47:22;;;;;;;33.17;30.08;;;;;;;;;;4982483;28;20206;-57
2021/06/23 11:49:47;;;;;;;30.67;27.77;;;;;;;;;;4985694;28;20182;-57
2021/06/23 11:52:12;;;;;;;31.02;28.20;;;;;;;;;;4981814;28;20228;-58
2021/06/23 11:54:38;;;;;;;29.10;26.50;;;;;;;;;;4982729;28;20306;-59
2021/06/23 11:57:03;;;;;;;30.73;27.83;;;;;;;;;;4982195;28;20185;-58
2021/06/23 11:59:29;;;;;;;30.13;27.43;;;;;;;;;;4984255;28;20167;-58
2021/06/23 12:01:54;;;;;;;29.50;26.60;;;;;;;;;;4984613;28;20211;-58
2021/06/23 12:04:19;;;;;;;31.73;28.77;;;;;;;;;;4985037;28;20209;-59
2021/06/23 12:06:44;;;;;;;27.05;24.63;;;;;;;;;;4986578;28;20186;-58
2021/06/23 12:09:09;;;;;;;26.90;24.60;;;;;;;;;;4986568;28;20350;-58
2021/06/23 12:11:34;;;;;;;26.37;24.00;;;;;;;;;;4988708;28;20272;-58
2021/06/23 12:14:00;;;;;;;26.13;23.83;;;;;;;;;;4988725;28;20181;-58
2021/06/23 12:16:25;;;;;;;27.52;25.02;;;;;;;;;;4988440;28;20550;-58
2021/06/23 12:18:50;;;;;;;26.27;23.83;;;;;;;;;;4987405;28;20182;-57
2021/06/23 12:21:15;;;;;;;26.10;23.67;;;;;;;;;;4989399;28;20293;-60
2021/06/23 12:23:40;;;;;;;25.77;23.53;;;;;;;;;;4981583;28;20231;-59
2021/06/23 12:26:05;;;;;;;25.45;23.25;;;;;;;;;;4981542;28;20200;-62
2021/06/23 12:28:31;;;;;;;26.60;24.20;;;;;;;;;;4981168;28;20669;-58
2021/06/23 12:30:56;;;;;;;28.47;25.80;;;;;;;;;;4982774;28;20180;-58
2021/06/23 12:33:21;;;;;;;27.00;24.50;;;;;;;;;;4985086;28;20626;-57
2021/06/23 12:35:46;;;;;;;26.02;23.55;;;;;;;;;;4984068;28;20318;-57
2021/06/23 12:38:13;;;;;;;29.83;27.07;;;;;;;;;;4986660;28;20616;-58
2021/06/23 12:40:38;;;;;;;27.83;25.17;;;;;;;;;;4988677;28;20186;-57
2021/06/23 12:43:09;;;;;;;30.50;27.50;;;;;;;;;;4989270;28;21020;-58
2021/06/23 12:45:34;;;;;;;28.53;25.87;;;;;;;;;;4989195;28;20237;-58
2021/06/23 12:48:01;;;;;;;27.95;25.08;;;;;;;;;;4986908;28;20604;-58
2021/06/23 12:50:26;;;;;;;30.17;27.20;;;;;;;;;;4987808;28;20170;-59
2021/06/23 12:52:52;;;;;;;28.13;25.70;;;;;;;;;;4989701;28;20972;-58
2021/06/23 12:55:18;;;;;;;28.97;26.23;;;;;;;;;;4989146;28;20189;-58
2021/06/23 12:57:43;;;;;;;29.20;26.70;;;;;;;;;;4986922;28;20181;-58
2021/06/23 13:00:10;;;;;;;28.00;25.27;;;;;;;;;;4986121;28;20991;-58
2021/06/23 13:02:36;;;;;;;26.63;24.30;;;;;;;;;;4980224;28;20202;-58
2021/06/23 13:05:05;;;;;;;25.00;22.83;;;;;;;;;;4987383;28;20612;-58
2021/06/23 13:07:31;;;;;;;24.57;22.17;;;;;;;;;;4986814;28;20969;-57
2021/06/23 13:09:57;;;;;;;24.98;22.75;;;;;;;;;;4989677;28;20716;-57
2021/06/23 13:12:22;;;;;;;24.77;22.87;;;;;;;;;;4987550;28;20233;-59
2021/06/23 13:14:47;;;;;;;25.03;22.83;;;;;;;;;;4989164;28;20592;-57
2021/06/23 13:17:12;;;;;;;25.73;23.50;;;;;;;;;;4989062;28;20178;-59
2021/06/23 13:19:37;;;;;;;25.73;23.63;;;;;;;;;;4988384;28;20179;-57
2021/06/23 13:22:03;;;;;;;26.90;24.60;;;;;;;;;;4988363;28;20163;-58
2021/06/23 13:24:28;;;;;;;26.17;23.87;;;;;;;;;;4986646;28;20199;-60
2021/06/23 13:26:53;;;;;;;24.50;22.33;;;;;;;;;;4988104;28;20557;-58
2021/06/23 13:29:18;;;;;;;32.25;29.17;;;;;;;;;;4984328;28;20236;-58
2021/06/23 13:31:44;;;;;;;27.97;25.40;;;;;;;;;;4987430;28;20276;-59
2021/06/23 13:34:10;;;;;;;25.60;23.40;;;;;;;;;;4987387;28;20711;-57
2021/06/23 13:36:35;;;;;;;29.10;26.50;;;;;;;;;;4988449;28;20174;-58
2021/06/23 13:39:00;;;;;;;30.63;27.70;;;;;;;;;;4988634;28;21422;-59
2021/06/23 13:41:26;;;;;;;25.88;23.73;;;;;;;;;;4988631;28;20652;-58
2021/06/23 13:43:51;;;;;;;25.70;23.37;;;;;;;;;;4985235;28;20210;-58
2021/06/23 13:46:16;;;;;;;25.10;23.00;;;;;;;;;;4985749;28;20178;-59
2021/06/23 13:48:41;;;;;;;23.85;21.83;;;;;;;;;;4986584;28;20227;-58
2021/06/23 13:51:06;;;;;;;23.80;21.60;;;;;;;;;;4987990;28;20185;-59
2021/06/23 13:53:32;;;;;;;23.15;21.15;;;;;;;;;;4988094;28;20570;-58
2021/06/23 13:55:57;;;;;;;25.43;23.33;;;;;;;;;;4988360;28;20174;-59
2021/06/23 13:58:22;;;;;;;23.03;21.13;;;;;;;;;;4986823;28;20182;-59
2021/06/23 14:00:47;;;;;;;25.60;23.50;;;;;;;;;;4985882;28;20237;-59
2021/06/23 14:03:12;;;;;;;26.27;23.97;;;;;;;;;;4987125;28;20200;-59
2021/06/23 14:05:38;;;;;;;23.07;21.07;;;;;;;;;;4988207;28;20229;-59
2021/06/23 14:08:05;;;;;;;24.00;21.90;;;;;;;;;;4980557;28;20823;-59
2021/06/23 14:10:30;;;;;;;22.87;20.87;;;;;;;;;;4975892;28;20650;-59
2021/06/23 14:12:55;;;;;;;24.53;22.63;;;;;;;;;;4975413;28;21009;-62
2021/06/23 14:15:20;;;;;;;20.83;19.13;;;;;;;;;;4978733;28;20197;-58
2021/06/23 14:17:45;;;;;;;20.13;18.40;;;;;;;;;;4980906;28;20201;-59
2021/06/23 14:20:14;;;;;;;21.13;19.33;;;;;;;;;;4980814;28;20197;-58
2021/06/23 14:22:39;;;;;;;22.47;20.67;;;;;;;;;;4975824;28;20240;-58
2021/06/23 14:25:06;;;;;;;20.40;18.60;;;;;;;;;;4977337;28;20601;-59
2021/06/23 14:27:31;;;;;;;21.37;19.63;;;;;;;;;;4976485;28;20589;-59
2021/06/23 14:29:57;;;;;;;19.43;17.93;;;;;;;;;;4978870;28;20685;-59
2021/06/23 14:32:23;;;;;;;21.60;19.80;;;;;;;;;;4981337;28;20183;-60
2021/06/23 14:34:48;;;;;;;19.03;17.60;;;;;;;;;;4984901;28;21192;-59
2021/06/23 14:37:14;;;;;;;16.75;15.52;;;;;;;;;;4983732;28;20581;-59
2021/06/23 14:39:39;;;;;;;18.47;16.87;;;;;;;;;;4980496;28;20304;-60
2021/06/23 14:42:04;;;;;;;19.03;17.53;;;;;;;;;;4979745;28;20469;-60
2021/06/23 14:44:30;;;;;;;16.20;14.90;;;;;;;;;;4980837;28;20209;-61
2021/06/23 14:46:55;;;;;;;17.00;15.70;;;;;;;;;;4979983;28;20177;-59